sensor_id;sensor_type;location;lat;lon;timestamp;pressure;altitude;pressure_sealevel;temperature;humidity
16738;BME280;17906;47.684;10.806;2023-02-11T00:00:38;95029.19;;;-8.52;nan
16738;BME280;17906;47.684;10.806;2023-02-11T00:03:05;95029.25;;;-8.53;nan
16738;BME280;17906;47.684;10.806;2023-02-11T00:05:32;95031.91;;;-8.39;nan
16738;BME280;17906;47.684;10.806;2023-02-11T00:07:58;95018.78;;;-8.39;nan
16738;BME280;17906;47.684;10.806;2023-02-11T00:10:25;95019.56;;;-8.37;nan
16738;BME280;17906;47.684;10.806;2023-02-11T00:12:53;95020.97;;;-8.31;nan
16738;BME280;17906;47.684;10.806;2023-02-11T00:15:20;95010.72;;;-8.36;nan
16738;BME280;17906;47.684;10.806;2023-02-11T00:17:46;95011.66;;;-8.37;nan
16738;BME280;17906;47.684;10.806;2023-02-11T00:20:13;95002.34;;;-8.43;nan
16738;BME280;17906;47.684;10.806;2023-02-11T00:22:40;95005.28;;;-8.33;nan
16738;BME280;17906;47.684;10.806;2023-02-11T00:25:07;95004.84;;;-8.25;nan
16738;BME280;17906;47.684;10.806;2023-02-11T00:27:35;95005.94;;;-8.29;nan
16738;BME280;17906;47.684;10.806;2023-02-11T00:30:04;95010.13;;;-8.41;nan
16738;BME280;17906;47.684;10.806;2023-02-11T00:32:30;95020.75;;;-8.43;nan
16738;BME280;17906;47.684;10.806;2023-02-11T00:34:57;95019.47;;;-8.65;nan
16738;BME280;17906;47.684;10.806;2023-02-11T00:37:23;95022.53;;;-8.73;nan
16738;BME280;17906;47.684;10.806;2023-02-11T00:39:50;95026.00;;;-8.73;nan
16738;BME280;17906;47.684;10.806;2023-02-11T00:42:17;95020.19;;;-8.78;nan
16738;BME280;17906;47.684;10.806;2023-02-11T00:44:44;95017.03;;;-8.68;nan
16738;BME280;17906;47.684;10.806;2023-02-11T00:47:12;95023.00;;;-8.81;nan
16738;BME280;17906;47.684;10.806;2023-02-11T00:49:39;95010.00;;;-8.84;nan
16738;BME280;17906;47.684;10.806;2023-02-11T00:52:05;95011.94;;;-9.02;nan
16738;BME280;17906;47.684;10.806;2023-02-11T00:54:32;95014.63;;;-9.03;nan
16738;BME280;17906;47.684;10.806;2023-02-11T00:56:59;95019.41;;;-9.10;nan
16738;BME280;17906;47.684;10.806;2023-02-11T00:59:25;95004.66;;;-9.12;nan
16738;BME280;17906;47.684;10.806;2023-02-11T01:01:52;95013.56;;;-9.31;nan
16738;BME280;17906;47.684;10.806;2023-02-11T01:04:20;95001.56;;;-9.35;nan
16738;BME280;17906;47.684;10.806;2023-02-11T01:06:47;95003.34;;;-9.35;nan
16738;BME280;17906;47.684;10.806;2023-02-11T01:09:14;95010.28;;;-9.34;nan
16738;BME280;17906;47.684;10.806;2023-02-11T01:11:41;95012.53;;;-9.28;nan
16738;BME280;17906;47.684;10.806;2023-02-11T01:14:08;95009.31;;;-9.17;nan
16738;BME280;17906;47.684;10.806;2023-02-11T01:16:34;95005.59;;;-9.13;nan
16738;BME280;17906;47.684;10.806;2023-02-11T01:19:01;95000.88;;;-9.22;nan
16738;BME280;17906;47.684;10.806;2023-02-11T01:21:29;95000.44;;;-9.31;nan
16738;BME280;17906;47.684;10.806;2023-02-11T01:23:56;94998.59;;;-9.44;nan
16738;BME280;17906;47.684;10.806;2023-02-11T01:26:22;94992.59;;;-9.46;nan
16738;BME280;17906;47.684;10.806;2023-02-11T01:28:49;94989.03;;;-9.45;nan
16738;BME280;17906;47.684;10.806;2023-02-11T01:31:15;94988.00;;;-9.43;nan
16738;BME280;17906;47.684;10.806;2023-02-11T01:33:42;94985.09;;;-9.38;nan
16738;BME280;17906;47.684;10.806;2023-02-11T01:36:09;94989.59;;;-9.40;nan
16738;BME280;17906;47.684;10.806;2023-02-11T01:38:38;94992.13;;;-9.39;nan
16738;BME280;17906;47.684;10.806;2023-02-11T01:41:08;94994.00;;;-9.41;nan
16738;BME280;17906;47.684;10.806;2023-02-11T01:43:37;94990.53;;;-9.41;nan
16738;BME280;17906;47.684;10.806;2023-02-11T01:46:20;94988.41;;;-9.50;nan
16738;BME280;17906;47.684;10.806;2023-02-11T01:48:52;94972.41;;;-9.62;nan
16738;BME280;17906;47.684;10.806;2023-02-11T01:51:24;94970.13;;;-9.83;nan
16738;BME280;17906;47.684;10.806;2023-02-11T01:53:54;94960.91;;;-9.91;nan
16738;BME280;17906;47.684;10.806;2023-02-11T01:56:43;94970.66;;;-9.77;nan
16738;BME280;17906;47.684;10.806;2023-02-11T01:59:31;94966.16;;;-9.75;nan
16738;BME280;17906;47.684;10.806;2023-02-11T02:02:04;94963.88;;;-9.65;nan
16738;BME280;17906;47.684;10.806;2023-02-11T02:04:35;94968.88;;;-9.61;nan
16738;BME280;17906;47.684;10.806;2023-02-11T02:07:08;94962.78;;;-9.61;nan
16738;BME280;17906;47.684;10.806;2023-02-11T02:09:41;94966.50;;;-9.65;nan
16738;BME280;17906;47.684;10.806;2023-02-11T02:12:09;94961.75;;;-9.74;nan
16738;BME280;17906;47.684;10.806;2023-02-11T02:14:37;94961.00;;;-9.76;nan
16738;BME280;17906;47.684;10.806;2023-02-11T02:17:04;94952.03;;;-9.88;nan
16738;BME280;17906;47.684;10.806;2023-02-11T02:19:51;94955.41;;;-9.86;nan
16738;BME280;17906;47.684;10.806;2023-02-11T02:22:51;94960.22;;;-9.94;nan
16738;BME280;17906;47.684;10.806;2023-02-11T02:25:58;94955.50;;;-9.87;nan
16738;BME280;17906;47.684;10.806;2023-02-11T02:31:43;94957.28;;;-9.88;nan
16738;BME280;17906;47.684;10.806;2023-02-11T02:34:18;94955.72;;;-9.92;nan
16738;BME280;17906;47.684;10.806;2023-02-11T02:36:54;94953.13;;;-9.92;nan
16738;BME280;17906;47.684;10.806;2023-02-11T02:39:27;94950.13;;;-10.02;nan
16738;BME280;17906;47.684;10.806;2023-02-11T02:41:56;94940.66;;;-10.04;nan
16738;BME280;17906;47.684;10.806;2023-02-11T02:44:23;94937.38;;;-10.08;nan
16738;BME280;17906;47.684;10.806;2023-02-11T02:46:50;94932.44;;;-10.30;nan
16738;BME280;17906;47.684;10.806;2023-02-11T02:49:18;94944.50;;;-10.43;nan
16738;BME280;17906;47.684;10.806;2023-02-11T02:51:57;94942.88;;;-10.45;nan
16738;BME280;17906;47.684;10.806;2023-02-11T02:54:38;94934.22;;;-10.30;nan
16738;BME280;17906;47.684;10.806;2023-02-11T02:57:22;94927.56;;;-10.20;nan
16738;BME280;17906;47.684;10.806;2023-02-11T03:00:03;94932.63;;;-10.17;nan
16738;BME280;17906;47.684;10.806;2023-02-11T03:02:37;94935.06;;;-10.14;nan
16738;BME280;17906;47.684;10.806;2023-02-11T03:05:10;94923.06;;;-10.02;nan
16738;BME280;17906;47.684;10.806;2023-02-11T03:07:43;94932.03;;;-10.06;nan
16738;BME280;17906;47.684;10.806;2023-02-11T03:10:15;94932.31;;;-9.95;nan
16738;BME280;17906;47.684;10.806;2023-02-11T03:12:43;94928.56;;;-9.91;nan
16738;BME280;17906;47.684;10.806;2023-02-11T03:15:10;94926.03;;;-10.08;nan
16738;BME280;17906;47.684;10.806;2023-02-11T03:17:40;94924.75;;;-10.01;nan
16738;BME280;17906;47.684;10.806;2023-02-11T03:20:12;94924.75;;;-10.01;nan
16738;BME280;17906;47.684;10.806;2023-02-11T03:22:42;94930.19;;;-10.04;nan
16738;BME280;17906;47.684;10.806;2023-02-11T03:25:12;94931.69;;;-10.16;nan
16738;BME280;17906;47.684;10.806;2023-02-11T03:27:44;94919.13;;;-10.09;nan
16738;BME280;17906;47.684;10.806;2023-02-11T03:30:16;94919.03;;;-10.08;nan
16738;BME280;17906;47.684;10.806;2023-02-11T03:32:48;94921.22;;;-10.16;nan
16738;BME280;17906;47.684;10.806;2023-02-11T03:35:20;94935.84;;;-10.45;nan
16738;BME280;17906;47.684;10.806;2023-02-11T03:37:50;94923.47;;;-10.41;nan
16738;BME280;17906;47.684;10.806;2023-02-11T03:40:20;94901.34;;;-10.69;nan
16738;BME280;17906;47.684;10.806;2023-02-11T03:42:49;94904.22;;;-10.58;nan
16738;BME280;17906;47.684;10.806;2023-02-11T03:45:19;94896.22;;;-10.55;nan
16738;BME280;17906;47.684;10.806;2023-02-11T03:47:50;94900.34;;;-10.51;nan
16738;BME280;17906;47.684;10.806;2023-02-11T03:50:22;94899.75;;;-10.56;nan
16738;BME280;17906;47.684;10.806;2023-02-11T03:52:49;94909.53;;;-10.59;nan
16738;BME280;17906;47.684;10.806;2023-02-11T03:55:18;94911.22;;;-10.58;nan
16738;BME280;17906;47.684;10.806;2023-02-11T03:57:46;94908.53;;;-10.57;nan
16738;BME280;17906;47.684;10.806;2023-02-11T04:00:14;94905.31;;;-10.62;nan
16738;BME280;17906;47.684;10.806;2023-02-11T04:02:41;94902.69;;;-10.62;nan
16738;BME280;17906;47.684;10.806;2023-02-11T04:05:11;94895.50;;;-10.58;nan
16738;BME280;17906;47.684;10.806;2023-02-11T04:07:39;94902.44;;;-10.57;nan
16738;BME280;17906;47.684;10.806;2023-02-11T04:10:07;94914.56;;;-10.55;nan
16738;BME280;17906;47.684;10.806;2023-02-11T04:12:34;94914.56;;;-10.55;nan
16738;BME280;17906;47.684;10.806;2023-02-11T04:15:00;94907.53;;;-10.54;nan
16738;BME280;17906;47.684;10.806;2023-02-11T04:17:27;94909.81;;;-10.64;nan
16738;BME280;17906;47.684;10.806;2023-02-11T04:19:53;94908.69;;;-10.60;nan
16738;BME280;17906;47.684;10.806;2023-02-11T04:22:20;94916.09;;;-10.51;nan
16738;BME280;17906;47.684;10.806;2023-02-11T04:24:48;94917.00;;;-10.52;nan
16738;BME280;17906;47.684;10.806;2023-02-11T04:27:14;94919.25;;;-10.61;nan
16738;BME280;17906;47.684;10.806;2023-02-11T04:29:41;94925.78;;;-10.68;nan
16738;BME280;17906;47.684;10.806;2023-02-11T04:32:08;94913.53;;;-10.68;nan
16738;BME280;17906;47.684;10.806;2023-02-11T04:34:35;94916.47;;;-10.74;nan
16738;BME280;17906;47.684;10.806;2023-02-11T04:37:01;94907.44;;;-10.68;nan
16738;BME280;17906;47.684;10.806;2023-02-11T04:39:28;94914.44;;;-10.69;nan
16738;BME280;17906;47.684;10.806;2023-02-11T04:41:56;94917.66;;;-10.64;nan
16738;BME280;17906;47.684;10.806;2023-02-11T04:44:22;94911.00;;;-10.54;nan
16738;BME280;17906;47.684;10.806;2023-02-11T04:46:49;94923.00;;;-10.50;nan
16738;BME280;17906;47.684;10.806;2023-02-11T04:49:16;94921.31;;;-10.51;nan
16738;BME280;17906;47.684;10.806;2023-02-11T04:51:43;94916.63;;;-10.44;nan
16738;BME280;17906;47.684;10.806;2023-02-11T04:54:10;94922.69;;;-10.43;nan
16738;BME280;17906;47.684;10.806;2023-02-11T04:56:37;94918.44;;;-10.46;nan
16738;BME280;17906;47.684;10.806;2023-02-11T04:59:05;94930.78;;;-10.48;nan
16738;BME280;17906;47.684;10.806;2023-02-11T05:01:32;94940.59;;;-10.52;nan
16738;BME280;17906;47.684;10.806;2023-02-11T05:03:59;94930.09;;;-10.52;nan
16738;BME280;17906;47.684;10.806;2023-02-11T05:06:25;94943.22;;;-10.52;nan
16738;BME280;17906;47.684;10.806;2023-02-11T05:08:52;94937.63;;;-10.45;nan
16738;BME280;17906;47.684;10.806;2023-02-11T05:11:21;94944.16;;;-10.53;nan
16738;BME280;17906;47.684;10.806;2023-02-11T05:13:48;94939.97;;;-10.57;nan
16738;BME280;17906;47.684;10.806;2023-02-11T05:16:16;94952.94;;;-10.54;nan
16738;BME280;17906;47.684;10.806;2023-02-11T05:18:44;94942.25;;;-10.66;nan
16738;BME280;17906;47.684;10.806;2023-02-11T05:21:13;94959.31;;;-10.75;nan
16738;BME280;17906;47.684;10.806;2023-02-11T05:23:40;94957.19;;;-10.68;nan
16738;BME280;17906;47.684;10.806;2023-02-11T05:26:08;94957.47;;;-10.57;nan
16738;BME280;17906;47.684;10.806;2023-02-11T05:28:34;94950.16;;;-10.51;nan
16738;BME280;17906;47.684;10.806;2023-02-11T05:31:01;94950.22;;;-10.52;nan
16738;BME280;17906;47.684;10.806;2023-02-11T05:33:29;94940.13;;;-10.42;nan
16738;BME280;17906;47.684;10.806;2023-02-11T05:35:57;94940.75;;;-10.22;nan
16738;BME280;17906;47.684;10.806;2023-02-11T05:38:24;94936.94;;;-10.32;nan
16738;BME280;17906;47.684;10.806;2023-02-11T05:40:50;94930.31;;;-10.39;nan
16738;BME280;17906;47.684;10.806;2023-02-11T05:43:17;94927.88;;;-10.26;nan
16738;BME280;17906;47.684;10.806;2023-02-11T05:45:43;94933.78;;;-10.23;nan
16738;BME280;17906;47.684;10.806;2023-02-11T05:48:10;94910.28;;;-10.24;nan
16738;BME280;17906;47.684;10.806;2023-02-11T05:50:38;94916.06;;;-10.18;nan
16738;BME280;17906;47.684;10.806;2023-02-11T05:53:05;94910.63;;;-10.14;nan
16738;BME280;17906;47.684;10.806;2023-02-11T05:55:32;94917.34;;;-10.09;nan
16738;BME280;17906;47.684;10.806;2023-02-11T05:57:58;94923.34;;;-10.07;nan
16738;BME280;17906;47.684;10.806;2023-02-11T06:00:25;94929.94;;;-10.00;nan
16738;BME280;17906;47.684;10.806;2023-02-11T06:02:52;94931.03;;;-10.04;nan
16738;BME280;17906;47.684;10.806;2023-02-11T06:05:19;94930.28;;;-10.06;nan
16738;BME280;17906;47.684;10.806;2023-02-11T06:07:47;94931.91;;;-9.87;nan
16738;BME280;17906;47.684;10.806;2023-02-11T06:10:13;94938.13;;;-9.90;nan
16738;BME280;17906;47.684;10.806;2023-02-11T06:12:40;94941.69;;;-9.91;nan
16738;BME280;17906;47.684;10.806;2023-02-11T06:15:07;94934.84;;;-9.94;nan
16738;BME280;17906;47.684;10.806;2023-02-11T06:17:33;94931.91;;;-9.87;nan
16738;BME280;17906;47.684;10.806;2023-02-11T06:20:01;94934.59;;;-9.73;nan
16738;BME280;17906;47.684;10.806;2023-02-11T06:22:27;94939.66;;;-9.70;nan
16738;BME280;17906;47.684;10.806;2023-02-11T06:24:56;94927.75;;;-9.76;nan
16738;BME280;17906;47.684;10.806;2023-02-11T06:27:22;94923.59;;;-9.64;nan
16738;BME280;17906;47.684;10.806;2023-02-11T06:29:49;94921.03;;;-9.50;nan
16738;BME280;17906;47.684;10.806;2023-02-11T06:32:16;94934.28;;;-9.37;nan
16738;BME280;17906;47.684;10.806;2023-02-11T06:34:43;94922.19;;;-9.40;nan
16738;BME280;17906;47.684;10.806;2023-02-11T06:37:10;94912.34;;;-9.36;nan
16738;BME280;17906;47.684;10.806;2023-02-11T06:39:37;94906.50;;;-9.25;nan
16738;BME280;17906;47.684;10.806;2023-02-11T06:42:05;94896.91;;;-9.11;nan
16738;BME280;17906;47.684;10.806;2023-02-11T06:44:31;94894.94;;;-8.93;nan
16738;BME280;17906;47.684;10.806;2023-02-11T06:46:58;94891.53;;;-8.79;nan
16738;BME280;17906;47.684;10.806;2023-02-11T06:49:24;94870.31;;;-8.76;nan
16738;BME280;17906;47.684;10.806;2023-02-11T06:51:51;94869.47;;;-8.62;nan
16738;BME280;17906;47.684;10.806;2023-02-11T06:54:18;94861.59;;;-8.48;nan
16738;BME280;17906;47.684;10.806;2023-02-11T06:56:44;94853.06;;;-8.37;nan
16738;BME280;17906;47.684;10.806;2023-02-11T06:59:14;94855.28;;;-8.31;nan
16738;BME280;17906;47.684;10.806;2023-02-11T07:01:41;94858.53;;;-8.14;nan
16738;BME280;17906;47.684;10.806;2023-02-11T07:04:08;94863.97;;;-8.02;nan
16738;BME280;17906;47.684;10.806;2023-02-11T07:06:35;94855.28;;;-7.90;nan
16738;BME280;17906;47.684;10.806;2023-02-11T07:09:02;94852.34;;;-7.86;nan
16738;BME280;17906;47.684;10.806;2023-02-11T07:11:29;94892.88;;;-7.88;nan
16738;BME280;17906;47.684;10.806;2023-02-11T07:13:59;94906.13;;;-7.90;nan
16738;BME280;17906;47.684;10.806;2023-02-11T07:16:29;94909.56;;;-7.75;nan
16738;BME280;17906;47.684;10.806;2023-02-11T07:18:56;94910.50;;;-7.62;nan
16738;BME280;17906;47.684;10.806;2023-02-11T07:21:23;94895.19;;;-7.42;nan
16738;BME280;17906;47.684;10.806;2023-02-11T07:23:50;94885.16;;;-7.23;nan
16738;BME280;17906;47.684;10.806;2023-02-11T07:26:18;59087.34;;;-146.04;100.00
16738;BME280;17906;47.684;10.806;2023-02-11T07:28:46;59087.34;;;-146.04;100.00
16738;BME280;17906;47.684;10.806;2023-02-11T07:31:15;94885.16;;;-7.23;nan
16738;BME280;17906;47.684;10.806;2023-02-11T07:33:43;94895.94;;;-6.61;nan
16738;BME280;17906;47.684;10.806;2023-02-11T07:36:12;94907.00;;;-6.43;nan
16738;BME280;17906;47.684;10.806;2023-02-11T07:38:39;94919.88;;;-6.39;nan
16738;BME280;17906;47.684;10.806;2023-02-11T07:41:08;94925.28;;;-6.27;nan
16738;BME280;17906;47.684;10.806;2023-02-11T07:43:36;94926.53;;;-6.20;nan
16738;BME280;17906;47.684;10.806;2023-02-11T07:46:04;94919.47;;;-6.07;nan
16738;BME280;17906;47.684;10.806;2023-02-11T07:48:30;94928.63;;;-6.00;nan
16738;BME280;17906;47.684;10.806;2023-02-11T07:51:06;94938.44;;;-6.02;nan
16738;BME280;17906;47.684;10.806;2023-02-11T07:53:32;94928.09;;;-5.92;nan
16738;BME280;17906;47.684;10.806;2023-02-11T07:55:59;94925.78;;;-5.97;nan
16738;BME280;17906;47.684;10.806;2023-02-11T07:58:26;94916.69;;;-5.93;nan
16738;BME280;17906;47.684;10.806;2023-02-11T08:00:52;94892.69;;;-5.77;nan
16738;BME280;17906;47.684;10.806;2023-02-11T08:03:19;94892.59;;;-5.75;nan
16738;BME280;17906;47.684;10.806;2023-02-11T08:05:46;94890.34;;;-5.69;nan
16738;BME280;17906;47.684;10.806;2023-02-11T08:08:14;94892.31;;;-5.60;nan
16738;BME280;17906;47.684;10.806;2023-02-11T08:10:40;94903.06;;;-5.50;nan
16738;BME280;17906;47.684;10.806;2023-02-11T08:13:07;94905.06;;;-5.41;nan
16738;BME280;17906;47.684;10.806;2023-02-11T08:15:33;94932.44;;;-5.42;nan
16738;BME280;17906;47.684;10.806;2023-02-11T08:18:00;94927.59;;;-5.24;nan
16738;BME280;17906;47.684;10.806;2023-02-11T08:20:27;94925.66;;;-5.09;nan
16738;BME280;17906;47.684;10.806;2023-02-11T08:22:53;94902.06;;;-4.88;nan
16738;BME280;17906;47.684;10.806;2023-02-11T08:25:21;94893.69;;;-4.71;nan
16738;BME280;17906;47.684;10.806;2023-02-11T08:27:48;94890.66;;;-4.43;nan
16738;BME280;17906;47.684;10.806;2023-02-11T08:30:14;94882.75;;;-4.20;nan
16738;BME280;17906;47.684;10.806;2023-02-11T08:32:41;94882.91;;;-3.99;nan
16738;BME280;17906;47.684;10.806;2023-02-11T08:35:08;94879.66;;;-3.81;nan
16738;BME280;17906;47.684;10.806;2023-02-11T08:37:36;94885.78;;;-3.80;nan
16738;BME280;17906;47.684;10.806;2023-02-11T08:40:04;94884.94;;;-3.81;nan
16738;BME280;17906;47.684;10.806;2023-02-11T08:42:33;94894.47;;;-3.78;nan
16738;BME280;17906;47.684;10.806;2023-02-11T08:45:00;94905.31;;;-3.70;nan
16738;BME280;17906;47.684;10.806;2023-02-11T08:47:26;94902.66;;;-3.70;nan
16738;BME280;17906;47.684;10.806;2023-02-11T08:49:53;94899.34;;;-3.51;nan
16738;BME280;17906;47.684;10.806;2023-02-11T08:52:19;94912.84;;;-3.43;nan
16738;BME280;17906;47.684;10.806;2023-02-11T08:54:46;94906.59;;;-3.53;nan
16738;BME280;17906;47.684;10.806;2023-02-11T08:57:15;94902.59;;;-3.25;nan
16738;BME280;17906;47.684;10.806;2023-02-11T08:59:43;94879.59;;;-2.09;nan
16738;BME280;17906;47.684;10.806;2023-02-11T09:02:10;94866.44;;;-0.90;nan
16738;BME280;17906;47.684;10.806;2023-02-11T09:04:38;94870.03;;;-0.04;nan
16738;BME280;17906;47.684;10.806;2023-02-11T09:07:06;94861.47;;;0.39;nan
16738;BME280;17906;47.684;10.806;2023-02-11T09:09:32;94869.69;;;0.55;nan
16738;BME280;17906;47.684;10.806;2023-02-11T09:11:59;94887.78;;;0.61;nan
16738;BME280;17906;47.684;10.806;2023-02-11T09:14:26;94883.66;;;1.58;nan
16738;BME280;17906;47.684;10.806;2023-02-11T09:16:54;94875.59;;;2.71;nan
16738;BME280;17906;47.684;10.806;2023-02-11T09:19:22;94875.59;;;2.71;nan
16738;BME280;17906;47.684;10.806;2023-02-11T09:21:48;94894.09;;;2.30;nan
16738;BME280;17906;47.684;10.806;2023-02-11T09:24:15;94883.59;;;1.85;nan
16738;BME280;17906;47.684;10.806;2023-02-11T09:26:42;94890.00;;;1.39;nan
16738;BME280;17906;47.684;10.806;2023-02-11T09:29:08;94881.72;;;1.14;nan
16738;BME280;17906;47.684;10.806;2023-02-11T09:31:35;94887.06;;;1.14;nan
16738;BME280;17906;47.684;10.806;2023-02-11T09:34:04;94882.34;;;1.26;nan
16738;BME280;17906;47.684;10.806;2023-02-11T09:36:33;94871.53;;;1.45;nan
16738;BME280;17906;47.684;10.806;2023-02-11T09:39:02;94870.00;;;1.43;nan
16738;BME280;17906;47.684;10.806;2023-02-11T09:41:38;94901.50;;;1.22;nan
16738;BME280;17906;47.684;10.806;2023-02-11T09:44:15;94905.22;;;1.11;nan
16738;BME280;17906;47.684;10.806;2023-02-11T09:46:43;94901.84;;;0.64;nan
16738;BME280;17906;47.684;10.806;2023-02-11T09:49:18;94909.56;;;0.57;nan
16738;BME280;17906;47.684;10.806;2023-02-11T09:51:50;94890.72;;;0.31;nan
16738;BME280;17906;47.684;10.806;2023-02-11T09:54:22;94889.97;;;0.39;nan
16738;BME280;17906;47.684;10.806;2023-02-11T09:56:51;94884.66;;;0.29;nan
16738;BME280;17906;47.684;10.806;2023-02-11T09:59:19;94880.47;;;0.26;nan
16738;BME280;17906;47.684;10.806;2023-02-11T10:01:49;94877.81;;;0.26;nan
16738;BME280;17906;47.684;10.806;2023-02-11T10:04:27;94868.81;;;0.27;nan
16738;BME280;17906;47.684;10.806;2023-02-11T10:07:09;94866.13;;;0.37;nan
16738;BME280;17906;47.684;10.806;2023-02-11T10:09:53;94856.41;;;0.46;nan
16738;BME280;17906;47.684;10.806;2023-02-11T10:12:40;94872.31;;;0.65;nan
16738;BME280;17906;47.684;10.806;2023-02-11T10:15:20;94873.66;;;0.79;nan
16738;BME280;17906;47.684;10.806;2023-02-11T10:18:04;94863.03;;;0.69;nan
16738;BME280;17906;47.684;10.806;2023-02-11T10:20:36;94861.25;;;0.87;nan
16738;BME280;17906;47.684;10.806;2023-02-11T10:23:09;94856.84;;;1.14;nan
16738;BME280;17906;47.684;10.806;2023-02-11T10:25:42;94851.97;;;1.27;nan
16738;BME280;17906;47.684;10.806;2023-02-11T10:28:13;94848.75;;;1.59;nan
16738;BME280;17906;47.684;10.806;2023-02-11T10:30:42;94841.72;;;1.94;nan
16738;BME280;17906;47.684;10.806;2023-02-11T10:33:16;94840.53;;;2.22;nan
16738;BME280;17906;47.684;10.806;2023-02-11T10:35:47;94826.72;;;2.35;nan
16738;BME280;17906;47.684;10.806;2023-02-11T10:38:13;94825.16;;;2.92;nan
16738;BME280;17906;47.684;10.806;2023-02-11T10:40:40;94821.59;;;3.59;nan
16738;BME280;17906;47.684;10.806;2023-02-11T10:43:10;94816.09;;;3.60;nan
16738;BME280;17906;47.684;10.806;2023-02-11T10:45:42;94818.25;;;3.57;nan
16738;BME280;17906;47.684;10.806;2023-02-11T10:48:40;94817.59;;;3.63;nan
16738;BME280;17906;47.684;10.806;2023-02-11T10:51:15;94813.22;;;3.45;nan
16738;BME280;17906;47.684;10.806;2023-02-11T10:53:43;94813.47;;;3.10;nan
16738;BME280;17906;47.684;10.806;2023-02-11T10:56:11;94816.09;;;3.02;nan
16738;BME280;17906;47.684;10.806;2023-02-11T10:58:43;94814.06;;;2.87;nan
16738;BME280;17906;47.684;10.806;2023-02-11T11:01:12;94813.91;;;2.89;nan
16738;BME280;17906;47.684;10.806;2023-02-11T11:03:45;94799.72;;;3.05;nan
16738;BME280;17906;47.684;10.806;2023-02-11T11:06:14;94796.69;;;3.00;nan
16738;BME280;17906;47.684;10.806;2023-02-11T11:08:43;94794.19;;;2.98;nan
16738;BME280;17906;47.684;10.806;2023-02-11T11:11:11;94792.66;;;2.87;nan
16738;BME280;17906;47.684;10.806;2023-02-11T11:13:40;94808.97;;;2.68;nan
16738;BME280;17906;47.684;10.806;2023-02-11T11:16:20;94810.88;;;2.42;nan
16738;BME280;17906;47.684;10.806;2023-02-11T11:18:48;94799.06;;;2.18;nan
16738;BME280;17906;47.684;10.806;2023-02-11T11:21:19;94803.63;;;2.00;nan
16738;BME280;17906;47.684;10.806;2023-02-11T11:23:49;94800.44;;;1.96;nan
16738;BME280;17906;47.684;10.806;2023-02-11T11:26:17;94805.69;;;2.06;nan
16738;BME280;17906;47.684;10.806;2023-02-11T11:28:52;94797.00;;;2.12;nan
16738;BME280;17906;47.684;10.806;2023-02-11T11:31:23;94800.56;;;2.21;nan
16738;BME280;17906;47.684;10.806;2023-02-11T11:33:52;94794.53;;;2.19;nan
16738;BME280;17906;47.684;10.806;2023-02-11T11:36:30;94800.06;;;2.17;nan
16738;BME280;17906;47.684;10.806;2023-02-11T11:39:00;94796.44;;;2.26;nan
16738;BME280;17906;47.684;10.806;2023-02-11T11:41:29;94801.50;;;2.38;nan
16738;BME280;17906;47.684;10.806;2023-02-11T11:44:02;94779.41;;;2.35;nan
16738;BME280;17906;47.684;10.806;2023-02-11T11:46:32;94781.94;;;2.45;nan
16738;BME280;17906;47.684;10.806;2023-02-11T11:49:16;94779.66;;;2.50;nan
16738;BME280;17906;47.684;10.806;2023-02-11T11:51:54;94771.66;;;2.67;nan
16738;BME280;17906;47.684;10.806;2023-02-11T11:54:24;94769.88;;;2.83;nan
16738;BME280;17906;47.684;10.806;2023-02-11T11:56:58;94763.53;;;3.01;nan
16738;BME280;17906;47.684;10.806;2023-02-11T11:59:26;94767.22;;;3.00;nan
16738;BME280;17906;47.684;10.806;2023-02-11T12:02:09;94783.00;;;3.03;nan
16738;BME280;17906;47.684;10.806;2023-02-11T12:04:52;94777.78;;;3.09;nan
16738;BME280;17906;47.684;10.806;2023-02-11T12:07:35;94762.59;;;3.26;nan
16738;BME280;17906;47.684;10.806;2023-02-11T12:10:27;94760.09;;;3.25;nan
16738;BME280;17906;47.684;10.806;2023-02-11T12:13:06;94766.97;;;3.35;nan
16738;BME280;17906;47.684;10.806;2023-02-11T12:15:41;94758.91;;;3.35;nan
16738;BME280;17906;47.684;10.806;2023-02-11T12:18:16;94757.22;;;3.26;nan
16738;BME280;17906;47.684;10.806;2023-02-11T12:21:04;94758.06;;;3.27;nan
16738;BME280;17906;47.684;10.806;2023-02-11T12:23:45;94764.91;;;3.21;nan
16738;BME280;17906;47.684;10.806;2023-02-11T12:26:17;94765.94;;;3.28;nan
16738;BME280;17906;47.684;10.806;2023-02-11T12:28:57;94767.47;;;3.39;nan
16738;BME280;17906;47.684;10.806;2023-02-11T12:31:33;94762.09;;;3.39;nan
16738;BME280;17906;47.684;10.806;2023-02-11T12:34:14;94758.22;;;3.33;nan
16738;BME280;17906;47.684;10.806;2023-02-11T12:36:54;94756.22;;;3.43;nan
16738;BME280;17906;47.684;10.806;2023-02-11T12:39:33;94754.03;;;3.55;nan
16738;BME280;17906;47.684;10.806;2023-02-11T12:45:35;94752.38;;;3.87;nan
16738;BME280;17906;47.684;10.806;2023-02-11T12:48:17;94754.56;;;3.91;nan
16738;BME280;17906;47.684;10.806;2023-02-11T12:50:54;94757.91;;;3.93;nan
16738;BME280;17906;47.684;10.806;2023-02-11T12:53:48;94759.38;;;4.04;nan
16738;BME280;17906;47.684;10.806;2023-02-11T12:56:25;94759.69;;;4.17;nan
16738;BME280;17906;47.684;10.806;2023-02-11T12:58:56;94749.78;;;4.18;nan
16738;BME280;17906;47.684;10.806;2023-02-11T13:01:26;94740.88;;;4.33;nan
16738;BME280;17906;47.684;10.806;2023-02-11T13:03:56;94731.91;;;4.41;nan
16738;BME280;17906;47.684;10.806;2023-02-11T13:06:28;94728.72;;;4.46;nan
16738;BME280;17906;47.684;10.806;2023-02-11T13:09:02;94725.50;;;4.50;nan
16738;BME280;17906;47.684;10.806;2023-02-11T13:11:36;94724.41;;;4.36;nan
16738;BME280;17906;47.684;10.806;2023-02-11T13:14:08;94721.16;;;4.49;nan
16738;BME280;17906;47.684;10.806;2023-02-11T13:16:40;94719.78;;;4.53;nan
16738;BME280;17906;47.684;10.806;2023-02-11T13:19:16;94724.09;;;4.62;nan
16738;BME280;17906;47.684;10.806;2023-02-11T13:21:58;94714.19;;;4.63;nan
16738;BME280;17906;47.684;10.806;2023-02-11T13:24:30;94712.97;;;4.74;nan
16738;BME280;17906;47.684;10.806;2023-02-11T13:27:07;94714.75;;;4.89;nan
16738;BME280;17906;47.684;10.806;2023-02-11T13:29:57;94712.53;;;5.16;nan
16738;BME280;17906;47.684;10.806;2023-02-11T13:33:01;94707.69;;;5.34;nan
16738;BME280;17906;47.684;10.806;2023-02-11T13:35:29;94703.75;;;5.45;nan